createdAt,value
2023-02-15T00:01:47.491Z,3.97
2023-02-15T00:04:15.896Z,4.13
2023-02-15T00:06:43.352Z,4.93
2023-02-15T00:09:11.794Z,3.85
2023-02-15T00:11:42.124Z,4.97
2023-02-15T00:14:16.536Z,3.70
2023-02-15T00:16:45.763Z,3.70
2023-02-15T00:19:13.750Z,4.97
2023-02-15T00:21:41.504Z,4.82
2023-02-15T00:24:10.143Z,3.20
2023-02-15T00:26:39.375Z,4.13
2023-02-15T00:29:07.233Z,4.57
2023-02-15T00:31:38.531Z,3.38
2023-02-15T00:34:16.306Z,4.38
2023-02-15T00:36:45.018Z,3.28
2023-02-15T00:39:13.053Z,2.85
2023-02-15T00:41:40.887Z,3.03
2023-02-15T00:44:09.076Z,3.03
2023-02-15T00:46:36.698Z,3.33
2023-02-15T00:49:05.003Z,4.63
2023-02-15T00:51:33.130Z,3.50
2023-02-15T00:54:01.911Z,4.20
2023-02-15T00:56:32.693Z,2.90
2023-02-15T00:59:00.278Z,3.63
2023-02-15T01:01:27.923Z,3.80
2023-02-15T01:03:55.600Z,3.85
2023-02-15T01:06:23.304Z,3.42
2023-02-15T01:08:50.804Z,2.30
2023-02-15T01:11:23.813Z,2.70
2023-02-15T01:13:52.747Z,3.30
2023-02-15T01:16:20.948Z,3.15
2023-02-15T01:18:48.767Z,2.83
2023-02-15T01:21:19.435Z,2.65
2023-02-15T01:23:46.959Z,4.55
2023-02-15T01:26:14.904Z,3.15
2023-02-15T01:28:42.934Z,1.92
2023-02-15T01:31:12.122Z,2.92
2023-02-15T01:33:40.461Z,2.42
2023-02-15T01:36:08.065Z,1.85
2023-02-15T01:38:36.723Z,4.25
2023-02-15T01:41:25.670Z,3.90
2023-02-15T01:44:03.818Z,2.95
2023-02-15T01:46:43.405Z,3.90
2023-02-15T01:49:13.649Z,3.60
2023-02-15T01:51:45.319Z,2.38
2023-02-15T01:54:26.267Z,3.30
2023-02-15T01:56:54.729Z,3.38
2023-02-15T01:59:23.952Z,2.58
2023-02-15T02:01:53.058Z,3.80
2023-02-15T02:04:46.946Z,2.50
2023-02-15T02:07:16.409Z,4.00
2023-02-15T02:09:44.783Z,3.17
2023-02-15T02:12:12.375Z,2.85
2023-02-15T02:14:41.742Z,3.03
2023-02-15T02:17:19.593Z,2.75
2023-02-15T02:20:05.734Z,2.00
2023-02-15T02:22:52.286Z,2.47
2023-02-15T02:25:28.132Z,2.42
2023-02-15T02:28:09.085Z,2.33
2023-02-15T02:30:55.256Z,3.33
2023-02-15T02:33:28.938Z,4.07
2023-02-15T02:36:11.470Z,2.50
2023-02-15T02:38:57.956Z,3.13
2023-02-15T02:41:25.394Z,3.65
2023-02-15T02:43:57.060Z,3.33
2023-02-15T02:46:51.204Z,2.67
2023-02-15T02:49:18.934Z,2.40
2023-02-15T02:51:46.488Z,2.83
2023-02-15T02:54:14.127Z,3.20
2023-02-15T02:56:45.129Z,2.55
2023-02-15T02:59:15.523Z,3.42
2023-02-15T03:01:46.831Z,2.65
2023-02-15T03:04:23.511Z,2.33
2023-02-15T03:06:52.848Z,2.28
2023-02-15T03:09:47.169Z,2.88
2023-02-15T03:12:16.540Z,2.60
2023-02-15T03:14:46.464Z,2.88
2023-02-15T03:17:16.124Z,3.00
2023-02-15T03:19:46.870Z,2.13
2023-02-15T03:22:21.074Z,2.47
2023-02-15T03:25:14.747Z,3.30
2023-02-15T03:30:10.848Z,3.00
2023-02-15T03:32:39.238Z,3.90
2023-02-15T03:35:07.390Z,2.17
2023-02-15T03:37:57.273Z,2.92
2023-02-15T03:40:46.553Z,3.08
2023-02-15T03:43:41.053Z,2.65
2023-02-15T03:46:13.225Z,1.90
2023-02-15T03:48:48.529Z,2.92
2023-02-15T03:51:36.615Z,2.13
2023-02-15T03:54:11.480Z,2.55
2023-02-15T03:56:40.979Z,3.97
2023-02-15T03:59:27.143Z,2.92
2023-02-15T04:02:06.794Z,2.22
2023-02-15T04:04:38.379Z,2.38
2023-02-15T04:07:07.176Z,2.92
2023-02-15T04:09:54.112Z,2.53
2023-02-15T04:12:22.541Z,3.13
2023-02-15T04:15:10.133Z,2.75
2023-02-15T04:17:38.954Z,2.05
2023-02-15T04:20:25.626Z,3.53
2023-02-15T04:23:16.269Z,3.03
2023-02-15T04:25:43.748Z,2.38
2023-02-15T04:28:11.384Z,3.47
2023-02-15T04:30:38.892Z,2.80
2023-02-15T04:33:07.025Z,2.60
2023-02-15T04:35:35.810Z,2.30
2023-02-15T04:38:04.144Z,2.67
2023-02-15T04:40:31.894Z,3.70
2023-02-15T04:42:59.465Z,4.70
2023-02-15T04:45:26.954Z,4.93
2023-02-15T04:47:54.638Z,4.47
2023-02-15T04:50:22.250Z,3.65
2023-02-15T04:52:49.983Z,3.33
2023-02-15T04:55:17.751Z,4.13
2023-02-15T04:57:45.284Z,3.90
2023-02-15T05:00:13.356Z,2.60
2023-02-15T05:02:40.847Z,2.75
2023-02-15T05:05:09.994Z,2.40
2023-02-15T05:07:37.478Z,3.20
2023-02-15T05:10:05.108Z,2.42
2023-02-15T05:12:32.720Z,3.10
2023-02-15T05:15:03.310Z,2.83
2023-02-15T05:17:33.638Z,2.45
2023-02-15T05:20:04.483Z,2.30
2023-02-15T05:22:32.996Z,2.30
2023-02-15T05:25:18.900Z,2.03
2023-02-15T05:28:12.774Z,2.83
2023-02-15T05:30:41.491Z,2.15
2023-02-15T05:33:09.883Z,3.42
2023-02-15T05:35:37.576Z,2.58
2023-02-15T05:38:05.150Z,2.22
2023-02-15T05:40:34.194Z,2.05
2023-02-15T05:43:01.923Z,2.30
2023-02-15T05:45:30.070Z,1.90
2023-02-15T05:48:00.051Z,2.47
2023-02-15T05:50:28.240Z,3.28
2023-02-15T05:52:56.355Z,2.95
2023-02-15T05:55:23.913Z,3.35
2023-02-15T05:57:52.168Z,3.58
2023-02-15T06:00:22.017Z,4.68
2023-02-15T06:02:49.639Z,3.45
2023-02-15T06:05:17.186Z,2.80
2023-02-15T06:07:46.904Z,3.17
2023-02-15T06:10:14.466Z,3.75
2023-02-15T06:12:42.238Z,2.83
2023-02-15T06:15:10.438Z,3.28
2023-02-15T06:17:37.966Z,2.08
2023-02-15T06:20:06.058Z,2.28
2023-02-15T06:22:33.570Z,3.05
2023-02-15T06:25:01.326Z,2.38
2023-02-15T06:27:28.862Z,2.45
2023-02-15T06:29:56.543Z,2.33
2023-02-15T06:32:24.056Z,2.22
2023-02-15T06:34:51.506Z,2.00
2023-02-15T06:37:19.735Z,1.73
2023-02-15T06:39:47.217Z,2.50
2023-02-15T06:42:15.729Z,2.13
2023-02-15T06:44:44.540Z,2.65
2023-02-15T06:47:12.537Z,2.08
2023-02-15T06:49:40.021Z,1.50
2023-02-15T06:52:07.529Z,1.88
2023-02-15T06:54:35.276Z,2.85
2023-02-15T06:57:02.766Z,1.20
2023-02-15T06:59:30.698Z,0.93
2023-02-15T07:01:58.220Z,1.00
2023-02-15T07:04:28.542Z,1.60
2023-02-15T07:06:56.226Z,1.70
2023-02-15T07:09:24.150Z,0.95
2023-02-15T07:12:11.310Z,0.88
2023-02-15T07:14:38.770Z,0.98
2023-02-15T07:17:11.696Z,1.00
2023-02-15T07:19:42.438Z,1.13
2023-02-15T07:22:09.899Z,1.45
2023-02-15T07:24:37.538Z,0.95
2023-02-15T07:27:05.062Z,1.30
2023-02-15T07:29:33.228Z,1.33
2023-02-15T07:32:00.872Z,1.25
2023-02-15T07:34:29.158Z,1.60
2023-02-15T07:36:57.079Z,1.27
2023-02-15T07:39:24.563Z,1.33
2023-02-15T07:41:52.068Z,1.33
2023-02-15T07:44:23.604Z,1.10
2023-02-15T07:46:51.113Z,1.35
2023-02-15T07:49:18.847Z,1.30
2023-02-15T07:51:46.712Z,2.33
2023-02-15T07:54:14.398Z,1.55
2023-02-15T07:56:44.859Z,2.13
2023-02-15T07:59:13.413Z,1.13
2023-02-15T08:01:41.863Z,1.05
2023-02-15T08:04:13.255Z,1.42
2023-02-15T08:06:43.837Z,1.17
2023-02-15T08:09:12.239Z,1.08
2023-02-15T08:11:45.599Z,1.85
2023-02-15T08:14:14.504Z,1.70
2023-02-15T08:16:44.241Z,0.98
2023-02-15T08:19:16.427Z,1.10
2023-02-15T08:21:45.483Z,1.25
2023-02-15T08:24:13.887Z,0.88
2023-02-15T08:26:42.495Z,0.73
2023-02-15T08:29:11.906Z,1.35
2023-02-15T08:31:39.725Z,1.30
2023-02-15T08:34:09.001Z,1.05
2023-02-15T08:36:36.712Z,0.93
2023-02-15T08:39:06.179Z,0.70
2023-02-15T08:41:37.741Z,1.00
2023-02-15T08:44:06.489Z,0.95
2023-02-15T08:46:34.907Z,2.00
2023-02-15T08:49:02.476Z,0.98
2023-02-15T08:51:31.555Z,0.93
2023-02-15T08:54:00.559Z,0.75
2023-02-15T08:56:29.056Z,1.15
2023-02-15T08:58:58.232Z,1.50
2023-02-15T09:01:26.609Z,1.40
2023-02-15T09:03:57.428Z,1.15
2023-02-15T09:06:25.116Z,1.67
2023-02-15T09:08:52.665Z,1.13
2023-02-15T09:11:25.464Z,1.00
2023-02-15T09:13:57.494Z,0.85
2023-02-15T09:16:25.877Z,1.17
2023-02-15T09:18:53.925Z,1.13
2023-02-15T09:21:23.532Z,1.27
2023-02-15T09:23:51.986Z,0.85
2023-02-15T09:26:24.053Z,1.35
2023-02-15T09:28:57.324Z,1.15
2023-02-15T09:31:26.673Z,1.10
2023-02-15T09:33:56.139Z,2.25
2023-02-15T09:36:25.231Z,1.10
2023-02-15T09:39:10.102Z,0.85
2023-02-15T09:41:56.799Z,1.40
2023-02-15T09:44:42.584Z,1.48
2023-02-15T09:47:28.931Z,0.88
2023-02-15T09:50:11.754Z,1.40
2023-02-15T09:52:42.397Z,0.90
2023-02-15T09:55:17.394Z,0.95
2023-02-15T09:57:50.897Z,1.15
2023-02-15T10:00:29.056Z,1.27
2023-02-15T10:03:18.362Z,1.15
2023-02-15T10:06:08.481Z,1.30
2023-02-15T10:08:51.320Z,1.48
2023-02-15T10:11:41.434Z,0.80
2023-02-15T10:14:19.166Z,0.82
2023-02-15T10:17:13.827Z,1.45
2023-02-15T10:20:00.185Z,0.70
2023-02-15T10:22:39.917Z,0.60
2023-02-15T10:25:21.263Z,0.85
2023-02-15T10:27:50.097Z,0.73
2023-02-15T10:30:20.423Z,1.30
2023-02-15T10:33:05.061Z,1.10
2023-02-15T10:35:54.356Z,0.82
2023-02-15T10:38:34.826Z,1.33
2023-02-15T10:41:11.446Z,1.27
2023-02-15T10:43:50.524Z,0.82
2023-02-15T10:46:36.916Z,1.23
2023-02-15T10:49:11.388Z,1.02
2023-02-15T10:51:57.580Z,1.10
2023-02-15T10:54:40.067Z,1.42
2023-02-15T10:57:10.602Z,1.17
2023-02-15T10:59:41.624Z,1.30
2023-02-15T11:02:09.044Z,0.80
2023-02-15T11:04:41.778Z,2.20
2023-02-15T11:07:15.338Z,1.00
2023-02-15T11:09:46.061Z,0.68
2023-02-15T11:12:15.516Z,0.98
2023-02-15T11:14:52.653Z,1.13
2023-02-15T11:17:22.971Z,1.10
2023-02-15T11:20:05.292Z,1.23
2023-02-15T11:22:34.011Z,0.80
2023-02-15T11:25:02.832Z,1.30
2023-02-15T11:27:32.574Z,1.52
2023-02-15T11:30:11.086Z,0.93
2023-02-15T11:32:53.106Z,1.10
2023-02-15T11:35:32.038Z,1.20
2023-02-15T11:38:06.958Z,0.90
2023-02-15T11:40:36.492Z,1.65
2023-02-15T11:43:08.072Z,1.73
2023-02-15T11:45:36.598Z,1.40
2023-02-15T11:48:10.659Z,1.35
2023-02-15T11:50:38.190Z,1.00
2023-02-15T11:53:08.063Z,1.40
2023-02-15T11:55:36.687Z,1.50
2023-02-15T11:58:09.789Z,1.33
2023-02-15T12:03:18.741Z,1.35
2023-02-15T12:05:48.703Z,2.08
2023-02-15T12:08:20.831Z,1.75
2023-02-15T12:11:01.481Z,1.37
2023-02-15T12:13:29.239Z,1.83
2023-02-15T12:15:59.149Z,1.77
2023-02-15T12:18:37.249Z,1.35
2023-02-15T12:21:07.472Z,1.10
2023-02-15T12:23:42.975Z,1.20
2023-02-15T12:26:11.191Z,1.50
2023-02-15T12:28:43.055Z,1.27
2023-02-15T12:31:22.819Z,1.73
2023-02-15T12:33:51.947Z,2.20
2023-02-15T12:36:21.131Z,1.40
2023-02-15T12:39:07.860Z,1.20
2023-02-15T12:41:36.088Z,1.25
2023-02-15T12:44:20.200Z,1.90
2023-02-15T12:46:59.874Z,1.73
2023-02-15T12:49:28.967Z,1.98
2023-02-15T12:51:58.690Z,2.25
2023-02-15T12:54:36.035Z,1.20
2023-02-15T12:57:22.351Z,1.65
2023-02-15T12:59:54.613Z,1.75
2023-02-15T13:02:31.316Z,1.55
2023-02-15T13:05:01.584Z,1.75
2023-02-15T13:07:33.386Z,1.60
2023-02-15T13:10:01.027Z,1.48
2023-02-15T13:12:32.423Z,1.33
2023-02-15T13:15:05.617Z,1.45
2023-02-15T13:17:35.471Z,2.28
2023-02-15T13:20:05.592Z,1.77
2023-02-15T13:22:43.824Z,2.13
2023-02-15T13:25:14.877Z,1.30
2023-02-15T13:27:44.374Z,1.58
2023-02-15T13:30:36.026Z,1.50
2023-02-15T13:33:16.311Z,2.05
2023-02-15T13:35:52.209Z,1.52
2023-02-15T13:38:45.958Z,1.80
2023-02-15T13:41:36.170Z,1.50
2023-02-15T13:44:27.059Z,1.70
2023-02-15T13:47:04.491Z,2.05
2023-02-15T13:49:41.069Z,2.55
2023-02-15T13:52:28.523Z,1.58
2023-02-15T13:55:14.719Z,1.60
2023-02-15T13:57:51.361Z,1.85
2023-02-15T14:00:24.932Z,2.15
2023-02-15T14:02:59.090Z,1.67
2023-02-15T14:05:45.542Z,1.90
2023-02-15T14:08:23.233Z,1.88
2023-02-15T14:11:01.981Z,2.00
2023-02-15T14:13:38.842Z,1.67
2023-02-15T14:16:27.868Z,1.35
2023-02-15T14:19:11.439Z,0.95
2023-02-15T14:21:57.417Z,1.95
2023-02-15T14:24:30.748Z,2.15
2023-02-15T14:26:58.896Z,1.40
2023-02-15T14:29:35.354Z,2.00
2023-02-15T14:32:09.962Z,1.92
2023-02-15T14:35:15.971Z,2.08
2023-02-15T14:37:50.273Z,1.67
2023-02-15T14:40:56.430Z,1.58
2023-02-15T14:43:26.970Z,1.70
2023-02-15T14:46:00.674Z,2.08
2023-02-15T14:48:47.104Z,1.85
2023-02-15T14:51:33.915Z,1.67
2023-02-15T14:54:01.517Z,2.08
2023-02-15T14:56:29.066Z,1.48
2023-02-15T14:58:58.926Z,1.75
2023-02-15T15:01:28.413Z,1.15
2023-02-15T15:04:00.877Z,1.58
2023-02-15T15:11:53.872Z,1.90
2023-02-15T15:14:33.467Z,2.40
2023-02-15T15:17:06.100Z,3.22
2023-02-15T15:19:52.384Z,2.15
2023-02-15T15:22:20.489Z,1.95
2023-02-15T15:24:49.799Z,2.55
2023-02-15T15:27:35.935Z,1.88
2023-02-15T15:30:04.264Z,1.85
2023-02-15T15:32:34.773Z,2.17
2023-02-15T15:35:03.847Z,1.65
2023-02-15T15:37:49.257Z,1.67
2023-02-15T15:40:52.353Z,2.08
2023-02-15T15:43:37.992Z,1.63
2023-02-15T15:46:23.717Z,1.27
2023-02-15T15:48:52.050Z,1.70
2023-02-15T15:51:26.829Z,1.33
2023-02-15T15:53:55.446Z,1.73
2023-02-15T15:56:32.843Z,1.55
2023-02-15T15:59:13.686Z,1.58
2023-02-15T16:01:45.659Z,1.60
2023-02-15T16:04:27.135Z,1.48
2023-02-15T16:06:55.049Z,1.05
2023-02-15T16:09:26.900Z,1.23
2023-02-15T16:11:56.839Z,1.65
2023-02-15T16:14:29.891Z,1.13
2023-02-15T16:19:41.148Z,1.30
2023-02-15T16:22:12.912Z,1.52
2023-02-15T16:24:49.246Z,1.30
2023-02-15T16:27:21.526Z,1.10
2023-02-15T16:29:49.051Z,1.20
2023-02-15T16:32:21.008Z,1.48
2023-02-15T16:35:04.522Z,1.40
2023-02-15T16:37:36.532Z,1.40
2023-02-15T16:40:04.362Z,1.43
2023-02-15T16:42:31.852Z,1.63
2023-02-15T16:45:16.629Z,1.00
2023-02-15T16:47:48.836Z,1.40
2023-02-15T16:50:29.993Z,1.40
2023-02-15T16:52:58.697Z,1.60
2023-02-15T16:55:28.275Z,1.63
2023-02-15T16:58:01.787Z,1.13
2023-02-15T17:00:32.538Z,1.40
2023-02-15T17:03:02.171Z,1.10
2023-02-15T17:05:49.126Z,1.40
2023-02-15T17:08:19.762Z,1.95
2023-02-15T17:11:06.385Z,0.80
2023-02-15T17:13:34.309Z,1.25
2023-02-15T17:16:03.456Z,1.52
2023-02-15T17:18:35.466Z,1.35
2023-02-15T17:21:10.705Z,1.10
2023-02-15T17:23:43.586Z,2.10
2023-02-15T17:26:21.027Z,1.58
2023-02-15T17:28:51.287Z,1.60
2023-02-15T17:31:20.792Z,1.08
2023-02-15T17:33:49.768Z,1.02
2023-02-15T17:36:25.250Z,0.98
2023-02-15T17:39:05.517Z,1.10
2023-02-15T17:41:35.962Z,2.13
2023-02-15T17:44:06.493Z,0.90
2023-02-15T17:46:36.896Z,1.83
2023-02-15T17:49:04.875Z,1.17
2023-02-15T17:51:33.192Z,0.93
2023-02-15T17:54:19.004Z,0.95
2023-02-15T17:56:46.492Z,0.98
2023-02-15T17:59:16.741Z,1.63
2023-02-15T18:02:06.868Z,1.85
2023-02-15T18:04:53.465Z,2.50
2023-02-15T18:07:39.119Z,1.23
2023-02-15T18:10:36.258Z,1.13
2023-02-15T18:13:04.432Z,0.95
2023-02-15T18:15:32.272Z,1.27
2023-02-15T18:17:59.819Z,0.95
2023-02-15T18:20:30.381Z,1.27
2023-02-15T18:22:57.873Z,0.80
2023-02-15T18:25:26.113Z,1.25
2023-02-15T18:27:55.418Z,1.70
2023-02-15T18:30:24.404Z,0.88
2023-02-15T18:32:53.370Z,1.55
2023-02-15T18:35:22.192Z,0.98
2023-02-15T18:37:51.215Z,1.67
2023-02-15T18:40:20.068Z,1.35
2023-02-15T18:45:33.688Z,0.82
2023-02-15T18:48:01.817Z,1.90
2023-02-15T18:50:34.603Z,1.05
2023-02-15T18:53:03.111Z,1.35
2023-02-15T18:55:30.696Z,3.88
2023-02-15T18:58:00.210Z,1.17
2023-02-15T19:00:37.511Z,1.92
2023-02-15T19:03:05.074Z,1.05
2023-02-15T19:05:33.268Z,1.25
2023-02-15T19:10:44.085Z,0.95
2023-02-15T19:13:13.041Z,1.33
2023-02-15T19:23:43.302Z,1.30
2023-02-15T19:28:47.577Z,1.23
2023-02-15T20:04:56.233Z,1.08
2023-02-15T20:10:19.936Z,0.82
2023-02-15T20:12:48.913Z,1.45
2023-02-15T20:15:24.898Z,0.93
2023-02-15T20:17:53.494Z,1.90
2023-02-15T20:37:22.263Z,1.92
2023-02-15T21:07:20.255Z,1.00
2023-02-15T21:32:12.658Z,1.38
2023-02-15T21:43:15.524Z,1.52
2023-02-15T21:51:17.786Z,1.15
2023-02-15T21:53:49.358Z,0.80
2023-02-15T21:58:55.974Z,1.20
2023-02-15T22:06:42.735Z,1.23
2023-02-15T22:09:19.664Z,0.98
2023-02-15T22:11:53.162Z,1.60
2023-02-15T22:14:27.223Z,0.90
2023-02-15T22:16:55.500Z,1.75
2023-02-15T22:19:23.315Z,0.85
2023-02-15T22:21:50.970Z,0.70
2023-02-15T22:37:48.400Z,1.00
2023-02-15T22:45:47.051Z,1.35
2023-02-15T22:48:18.954Z,1.30
2023-02-15T22:51:28.579Z,0.70
2023-02-15T22:53:56.406Z,0.95
2023-02-15T22:56:28.753Z,0.82
2023-02-15T22:59:06.985Z,2.53
2023-02-15T23:01:36.567Z,0.95
2023-02-15T23:04:06.837Z,0.50
2023-02-15T23:06:35.432Z,1.15
2023-02-15T23:09:03.338Z,1.05
2023-02-15T23:11:31.346Z,0.43
2023-02-15T23:14:00.261Z,0.82
2023-02-15T23:16:27.910Z,0.80
2023-02-15T23:18:55.787Z,1.25
2023-02-15T23:21:27.825Z,0.90
2023-02-15T23:23:56.929Z,0.98
2023-02-15T23:28:50.651Z,1.45
2023-02-15T23:31:22.578Z,0.52
2023-02-15T23:33:56.777Z,1.17
2023-02-15T23:36:32.311Z,0.98
2023-02-15T23:39:22.084Z,1.15
2023-02-15T23:41:49.839Z,0.93
2023-02-15T23:44:19.157Z,0.65
2023-02-15T23:46:50.447Z,1.30
2023-02-15T23:49:19.511Z,0.93
2023-02-15T23:51:49.764Z,1.58
2023-02-15T23:54:21.252Z,1.10
2023-02-15T23:56:53.590Z,1.15
2023-02-15T23:59:25.970Z,0.88
